May 17, 2022

Time Code Weather Temp. Visibility Clouds Wind METAR/SPECI
8:00 am
V
48 °F 15 mi - 300°   300° 14 kt METAR CYYZ 171200Z 30014KT 15SM FEW050 09/04 A2979 RMK SC1 SC TR SLP092
7:00 am
V
46 °F 15 mi - 290°   290° 14 20 kt METAR CYYZ 171100Z 29014G20KT 15SM FEW040 08/03 A2978 RMK SC1 SC TR SLP088
6:00 am
V
45 °F 15 mi - 290°   290° 13 kt METAR CYYZ 171000Z 29013KT 15SM FEW040 FEW180 07/03 A2976 RMK SC1AC1 SC TR AC TR SLP081
5:00 am
V
46 °F 15 mi - 290°   290° 13 kt METAR CYYZ 170900Z 29013KT 15SM FEW180 08/02 A2975 RMK AC1 SLP077
4:00 am
V
50 °F 15 mi - 300°   300° 20 26 kt METAR CYYZ 170800Z 30020G26KT 15SM FEW060 FEW100 10/01 A2974 RMK SC1AC1 SLP075
3:00 am
V
54 °F 15 mi 10,000 ft 300°   300° 20 25 kt METAR CYYZ 170700Z 30020G25KT 15SM SCT075 BKN100 12/03 A2973 RMK AC4AC3 SLP071 DENSITY ALT 600FT
2:00 am
V
55 °F 15 mi 10,000 ft 310°   310° 16 22 kt METAR CYYZ 170600Z 31016G22KT 15SM BKN100 13/04 A2973 RMK AC7 SLP071 DENSITY ALT 700FT
1:00 am
V
57 °F 15 mi 10,000 ft 300°   300° 11 17 kt METAR CYYZ 170500Z 30011G17KT 15SM BKN100 14/06 A2973 RMK AC5 SLP072 DENSITY ALT 800FT
12:00 am
V
59 °F 15 mi 9,500 ft 290°   290° 9 kt METAR CYYZ 170400Z 29009KT 15SM BKN095 15/08 A2973 RMK AC7 SLP070 DENSITY ALT 900FT

May 16, 2022

Time Code Weather Temp. Visibility Clouds Wind METAR/SPECI
11:00 pm
V
59 °F 15 mi 12,000 ft 280°   280° 7 kt METAR CYYZ 170300Z 28007KT 15SM SCT090 BKN120 15/08 A2973 RMK AC4AC3 SLP072 DENSITY ALT 1000FT
10:00 pm
V
59 °F 15 mi 11,000 ft 290°   290° 3 kt METAR CYYZ 170200Z 29003KT 220V010 15SM FEW040 BKN110 15/08 A2973 RMK CU1AC7 CU TR SLP070 DENSITY ALT 900FT
9:00 pm
V
57 °F 15 mi - 050°   050° 4 kt METAR CYYZ 170100Z 05004KT 15SM SCT110 SCT250 14/07 A2971 RMK AC3CI1 SLP065 DENSITY ALT 900FT
8:00 pm
V
63 °F 15 mi 11,000 ft 360°   360° 6 kt METAR CYYZ 170000Z 36006KT 15SM FEW040 BKN110 17/08 A2970 RMK CU1AC5 CU TR SLP060 DENSITY ALT 1200FT
7:00 pm
V
63 °F 15 mi - 360°   360° 13 kt METAR CYYZ 162300Z 36013KT 300V010 15SM FEW055 FEW100 17/08 A2969 RMK SC1AC1 SLP055 DENSITY ALT 1300FT
6:00 pm
V
64 °F 15 mi 23,000 ft 340°   340° 13 19 kt METAR CYYZ 162200Z 34013G19KT 300V010 15SM SCT039 BKN230 18/09 A2968 RMK CU4CI2 SLP053 DENSITY ALT 1300FT
5:00 pm
V
63 °F 15 mi 22,000 ft 310°   310° 13 kt METAR CYYZ 162100Z 31013KT 15SM SCT038 BKN220 17/09 A2967 RMK CU3CI2 SLP049 DENSITY ALT 1300FT
4:00 pm
V
59 °F 15 mi 3,200 ft 340°   340° 16 kt METAR CYYZ 162000Z 34016KT 15SM BKN032 BKN180 15/08 A2967 RMK CU6AC1 SLP049 DENSITY ALT 1000FT
3:00 pm
V
59 °F 15 mi 8,000 ft 340°   340° 16 22 kt METAR CYYZ 161900Z 34016G22KT 15SM SCT018 BKN080 BKN180 15/10 A2967 RMK CU4AC2AC1 SLP049 DENSITY ALT 1000FT
2:10 pm
V
54 °F 12 mi 3,300 ft 350°   350° 17 kt METAR CYYZ 161810Z 35017KT 12SM SCT016 BKN033 BKN070 12/11 A2966 RMK CF3SC3AC1 SLP047 DENSITY ALT 700FT
2:00 pm
V
54 °F 10 mi 4,500 ft 360°   360° 14 kt METAR CYYZ 161800Z 36014KT 10SM -RA SCT013 BKN045 BKN068 12/09 A2966 RMK CF3SC3AC1 WIND ESTD SLP046 DENSITY ALT 700FT
1:00 pm
M
54 °F 8 mi 1,300 ft 340°   340° 15 kt METAR CYYZ 161700Z 34015KT 8SM -RA BKN013 BKN040 OVC060 12/12 A2966 RMK SC6SC1SC1 SLP045 DENSITY ALT 700FT
12:00 pm
V
55 °F 6 mi 3,000 ft 330°   330° 16 kt METAR CYYZ 161600Z 33016KT 6SM -RA FEW015 BKN030 OVC065 13/12 A2967 RMK CF1SC5SC2 SLP050 DENSITY ALT 700FT
11:53 am
V
55 °F 6 mi 3,000 ft 340°   340° 12 19 kt METAR CYYZ 161553Z 34012G19KT 6SM -RA FEW015 BKN030 OVC063 13/12 A2968 RMK CF1SC5SC2 SLP051 DENSITY ALT 800FT
11:22 am
V
55 °F 15 mi 5,400 ft 340°   340° 11 kt METAR CYYZ 161522Z 34011KT 15SM FEW015 BKN054 OVC100 13/13 A2968 RMK CF1SC5AC2 SLP051 DENSITY ALT 800FT
11:00 am
V
55 °F 12 mi 7,000 ft 350°   350° 13 kt METAR CYYZ 161500Z 35013KT 12SM -RA FEW015 SCT035 OVC070 13/13 A2966 RMK CF1SC3AC4 SLP045 DENSITY ALT 800FT
10:00 am
V
57 °F 12 mi 6,500 ft 330°   330° 5 kt METAR CYYZ 161400Z 33005KT 300V360 12SM -RA FEW030 BKN065 OVC100 14/12 A2969 RMK SC1SC6AC1 SLP054 DENSITY ALT 800FT
9:43 am
V
55 °F 15 mi 6,500 ft 350°   350° 9 kt METAR CYYZ 161343Z 35009KT 15SM -RA FEW030 BKN065 OVC120 13/12 A2968 RMK SC1SC6AC1 SLP052 DENSITY ALT 800FT
9:00 am
V
55 °F 15 mi 3,800 ft 050°   050° 5 kt METAR CYYZ 161300Z 05005KT 030V160 15SM FEW030CB BKN038 OVC100 13/10 A2970 RMK CB2SC3AC3 CB NE MOVG N PRESRR SLP059 DENSITY ALT 800FT
8:45 am
V
54 °F 6 mi 6,000 ft 010°   010° 22 kt METAR CYYZ 161245Z 01022KT 280V040 6SM R06R/5000VP6000FT/U -TSRA SCT025CB BKN060 OVC092 12/11 A2966 RMK CB3SC3AC2 CB N MOVG NE OCNL LTGIC PRESFR SLP044 DENSITY ALT 700FT
8:38 am
I
55 °F 1¼ mi 3,000 ft Var   Var 8 16 kt METAR CYYZ 161238Z VRB08G16KT 1 1/4SM R06R/5000VP6000FT/D TSRA BKN030CB OVC050 13/09 A2971 RMK CB6SC2 OCNL LTGIC SLP063 DENSITY ALT 800FT
8:31 am
V
57 °F 6 mi 5,000 ft 240°   240° 12 18 kt METAR CYYZ 161231Z 24012G18KT 220V320 6SM -TSRA FEW030CB OVC050 14/09 A2976 RMK CB2SC6 CB SW MOVG N OCNL LTGCG PRESRR SLP077 DENSITY ALT 800FT
8:00 am
V
57 °F 15 mi 5,000 ft 350°   350° 12 18 kt METAR CYYZ 161200Z 35012G18KT 15SM VCSH FEW030 BKN050 OVC180 14/09 A2971 RMK SC1SC4AC3 VIS LWR W-N SLP062 DENSITY ALT 900FT
7:00 am
V
57 °F 15 mi 7,500 ft 340°   340° 12 kt METAR CYYZ 161100Z 34012KT 15SM BKN075 BKN220 14/10 A2972 RMK AC5CI2 SLP065 DENSITY ALT 800FT
6:16 am
V
57 °F 15 mi 7,400 ft 340°   340° 11 18 kt METAR CYYZ 161016Z 34011G18KT 15SM FEW015 BKN074 OVC140 14/12 A2971 RMK SF1AC5AC2 SLP063 DENSITY ALT 900FT
6:00 am
V
59 °F 15 mi 7,400 ft 360°   360° 14 19 kt METAR CYYZ 161000Z 36014G19KT 15SM -RA FEW015 BKN074 BKN140 OVC220 15/12 A2971 RMK CF1AC5AC2CI1 CF TR SLP062 DENSITY ALT 900FT
5:41 am
V
59 °F 15 mi 14,000 ft 360°   360° 12 17 kt METAR CYYZ 160941Z 36012G17KT 15SM -RA FEW080 BKN140 OVC220 15/12 A2970 RMK AC2AC5CI1 SLP058 DENSITY ALT 1000FT
5:00 am
V
61 °F 15 mi 14,000 ft 340°   340° 11 kt METAR CYYZ 160900Z 34011KT 15SM FEW090 BKN140 BKN230 16/13 A2968 RMK AC2AC3CI2 SLP051 DENSITY ALT 1200FT
4:00 am
V
64 °F 15 mi 8,500 ft 350°   350° 12 kt METAR CYYZ 160800Z 35012KT 15SM FEW068 BKN085 OVC220 18/14 A2969 RMK CU2AC4CI2 SLP053 DENSITY ALT 1300FT
3:00 am
V
64 °F 15 mi 10,000 ft 010°   010° 11 kt METAR CYYZ 160700Z 01011KT 15SM FEW064 BKN100 BKN140 18/14 A2971 RMK CU2AC4AC1 SLP059 DENSITY ALT 1400FT
2:00 am
V
66 °F 15 mi 15,000 ft 340°   340° 10 17 kt METAR CYYZ 160600Z 34010G17KT 15SM SCT098 BKN150 19/14 A2973 RMK AC3AC4 SLP067 DENSITY ALT 1500FT
1:36 am
V
68 °F 15 mi 12,000 ft 330°   330° 11 kt METAR CYYZ 160536Z 33011KT 15SM SCT095 BKN120 20/15 A2973 RMK AC3AC4 SLP066 DENSITY ALT 1600FT
1:00 am
V
68 °F 15 mi 13,000 ft 320°   320° 10 kt METAR CYYZ 160500Z 32010KT 15SM -RA SCT095 OVC130 20/15 A2974 RMK AC3AC5 SLP070 DENSITY ALT 1600FT
12:38 am
V
68 °F 15 mi 12,000 ft 290°   290° 10 kt METAR CYYZ 160438Z 29010KT 15SM -RA SCT092 BKN120 20/14 A2975 RMK AC3AC4 SLP074 DENSITY ALT 1500FT
12:00 am
V
70 °F 15 mi 10,000 ft 350°   350° 8 kt METAR CYYZ 160400Z 35008KT 15SM FEW065 BKN100 BKN150 21/14 A2974 RMK CU1AC4AC1 SLP070 DENSITY ALT 1700FT

May 15, 2022

Time Code Weather Temp. Visibility Clouds Wind METAR/SPECI
11:00 pm
V
72 °F 15 mi 22,000 ft 360°   360° 5 kt METAR CYYZ 160300Z 36005KT 300V010 15SM SCT091 BKN220 22/14 A2974 RMK AC3CI2 SLP072 DENSITY ALT 1700FT
10:00 pm
V
73 °F 15 mi 25,000 ft 360°   360° 11 kt METAR CYYZ 160200Z 36011KT 15SM FEW140 BKN250 23/13 A2974 RMK AC2CI3 SLP071 DENSITY ALT 1900FT
9:00 pm
V
75 °F 15 mi 26,000 ft 280°   280° 6 kt METAR CYYZ 160100Z 28006KT 15SM FEW130 SCT180 BKN260 24/10 A2973 RMK AC1AS2CI3 SLP066 DENSITY ALT 2000FT
8:00 pm
V
77 °F 15 mi 26,000 ft 280°   280° 7 kt METAR CYYZ 160000Z 28007KT 15SM FEW060 FEW100 BKN260 25/09 A2973 RMK CU1AC1CI4 CU TR TCU DIST E SLP066 DENSITY ALT 2100FT
7:00 pm
V
82 °F 15 mi 26,000 ft 300°   300° 11 kt METAR CYYZ 152300Z 30011KT 15SM FEW060 FEW100 BKN260 28/10 A2973 RMK CU1AC1CI4 AC TR TCU DIST NE SLP068 DENSITY ALT 2400FT
6:00 pm
V
84 °F 15 mi - 320°   320° 15 kt METAR CYYZ 152200Z 32015KT 15SM FEW065 FEW250 29/10 A2973 RMK CU1CI1 SLP068 DENSITY ALT 2600FT
5:00 pm
V
84 °F 15 mi - 310°   310° 13 19 kt METAR CYYZ 152100Z 31013G19KT 15SM FEW068 SCT250 29/12 A2973 RMK CU1CI2 SLP068 DENSITY ALT 2600FT
4:00 pm
V
84 °F 15 mi - 310°   310° 12 kt METAR CYYZ 152000Z 31012KT 15SM FEW068 SCT250 29/13 A2975 RMK CU2CI2 SLP075 DENSITY ALT 2500FT
3:00 pm
V
81 °F 15 mi - 140°   140° 7 kt METAR CYYZ 151900Z 14007KT 100V180 15SM SCT065 SCT250 27/16 A2977 RMK CU3CI1 SLP080 DENSITY ALT 2300FT
2:00 pm
V
79 °F 15 mi - 140°   140° 9 kt METAR CYYZ 151800Z 14009KT 15SM FEW060 SCT250 26/16 A2980 RMK CU2CI2 SLP090 DENSITY ALT 2200FT
1:00 pm
V
81 °F 15 mi - 250°   250° 3 kt METAR CYYZ 151700Z 25003KT 15SM FEW050 FEW180 SCT250 27/14 A2982 RMK CU1AC1CI3 CU TR AC TR SLP098 DENSITY ALT 2200FT
12:00 pm
V
79 °F 15 mi - 340°   340° 7 kt METAR CYYZ 151600Z 34007KT 260V010 15SM FEW050 SCT250 26/14 A2983 RMK CU1CI4 CU TR SLP101 DENSITY ALT 2100FT
11:00 am
V
77 °F 15 mi - Var   Var 2 kt METAR CYYZ 151500Z VRB02KT 15SM FEW040 SCT250 25/16 A2983 RMK CF1CI3 CF TR SLP103 DENSITY ALT 2000FT
10:00 am
V
73 °F 15 mi 25,000 ft Var   Var 2 kt METAR CYYZ 151400Z VRB02KT 15SM BKN250 23/14 A2984 RMK CI7 CONTRAILS SLP104 DENSITY ALT 1700FT
9:00 am
V
72 °F 15 mi 25,000 ft Var   000° 0 kt METAR CYYZ 151300Z 00000KT 15SM BKN250 22/16 A2984 RMK CI6 SLP106 DENSITY ALT 1600FT
Older data

Download our app

Easy access to all aviation weather on your mobile phone and tablet.
With many features not available on the website, like offline support and a personal airport list.